Time;durP1;ratioP1;P1;durP2;ratioP2;P2;SDS_P1;SDS_P2;PMS_P1;PMS_P2;Temp;Humidity;BMP_temperature;BMP_pressure;BME280_temperature;BME280_humidity;BME280_pressure;Samples;Min_cycle;Max_cycle;Signal;HPM_P1;HPM_P2
2022/06/09 00:01:13;;;;;;;1.15;1.05;;;18.10;91.90;;;;;;939182;152;27465;-75
2022/06/09 00:04:04;;;;;;;1.63;1.53;;;18.10;92.00;;;;;;939494;150;27337;-75
2022/06/09 00:06:43;;;;;;;2.23;1.70;;;18.10;92.20;;;;;;937505;150;27421;-76
2022/06/09 00:09:10;;;;;;;1.17;1.10;;;18.00;92.10;;;;;;936745;150;27356;-75
2022/06/09 00:11:36;;;;;;;2.23;1.43;;;18.00;92.30;;;;;;937042;150;27744;-75
2022/06/09 00:14:03;;;;;;;3.62;1.50;;;18.00;92.50;;;;;;937252;150;27355;-76
2022/06/09 00:16:29;;;;;;;1.40;1.30;;;18.00;92.60;;;;;;937036;151;27458;-76
2022/06/09 00:18:56;;;;;;;2.50;1.57;;;18.00;92.70;;;;;;937339;153;27451;-75
2022/06/09 00:21:23;;;;;;;1.53;1.50;;;18.00;92.80;;;;;;937469;150;27388;-76
2022/06/09 00:23:49;;;;;;;1.55;1.40;;;18.00;92.90;;;;;;937290;150;27415;-76
2022/06/09 00:26:16;;;;;;;3.15;1.80;;;18.00;93.00;;;;;;937294;151;27407;-75
2022/06/09 00:28:42;;;;;;;1.47;1.37;;;18.00;93.10;;;;;;937276;150;27433;-74
2022/06/09 00:31:09;;;;;;;2.13;1.37;;;17.90;93.10;;;;;;937395;150;27649;-75
2022/06/09 00:33:36;;;;;;;1.90;1.47;;;17.90;93.10;;;;;;937454;150;27431;-75
2022/06/09 00:36:02;;;;;;;1.98;1.40;;;17.90;93.20;;;;;;938003;150;27667;-76
2022/06/09 00:38:29;;;;;;;1.93;1.60;;;17.90;93.20;;;;;;937005;151;28775;-75
2022/06/09 00:40:59;;;;;;;2.30;1.60;;;17.80;93.20;;;;;;937237;150;27468;-74
2022/06/09 00:43:25;;;;;;;1.70;1.60;;;17.90;93.20;;;;;;936995;150;27505;-75
2022/06/09 00:46:16;;;;;;;1.42;1.30;;;17.80;93.20;;;;;;936780;150;27332;-76
2022/06/09 00:48:51;;;;;;;1.80;1.67;;;17.70;93.30;;;;;;936151;150;27360;-76
2022/06/09 00:51:24;;;;;;;2.03;1.30;;;17.70;93.20;;;;;;937102;152;27328;-76
2022/06/09 00:53:50;;;;;;;1.60;1.50;;;17.70;93.50;;;;;;936224;150;27340;-75
2022/06/09 00:56:17;;;;;;;2.02;1.50;;;17.60;93.70;;;;;;936715;153;27450;-76
2022/06/09 00:58:43;;;;;;;1.80;1.70;;;17.60;93.90;;;;;;937482;150;27967;-75
2022/06/09 01:01:10;;;;;;;2.10;1.90;;;17.60;94.10;;;;;;937169;150;27357;-76
2022/06/09 01:03:36;;;;;;;3.13;1.80;;;17.60;94.20;;;;;;936867;150;27329;-75
2022/06/09 01:06:06;;;;;;;1.50;1.40;;;17.60;94.40;;;;;;936645;150;27381;-75
2022/06/09 01:08:32;;;;;;;1.65;1.50;;;17.60;94.50;;;;;;937898;148;27500;-75
2022/06/09 01:10:59;;;;;;;1.30;1.20;;;17.60;94.40;;;;;;937068;150;27372;-76
2022/06/09 01:13:26;;;;;;;2.03;1.50;;;17.60;94.40;;;;;;937702;150;27345;-76
2022/06/09 01:16:11;;;;;;;1.97;1.53;;;17.60;94.50;;;;;;936962;150;27294;-75
2022/06/09 01:18:59;;;;;;;1.60;1.47;;;17.60;94.50;;;;;;936105;150;27286;-75
2022/06/09 01:21:28;;;;;;;1.47;1.37;;;17.60;94.40;;;;;;937051;153;27343;-75
2022/06/09 01:24:10;;;;;;;2.00;1.83;;;17.60;94.40;;;;;;937342;150;27399;-76
2022/06/09 01:26:48;;;;;;;2.03;1.93;;;17.60;94.50;;;;;;936643;151;27684;-76
2022/06/09 01:29:27;;;;;;;2.90;1.77;;;17.50;94.50;;;;;;936731;151;27328;-75
2022/06/09 01:31:59;;;;;;;2.30;1.80;;;17.50;94.60;;;;;;935916;153;27421;-75
2022/06/09 01:34:31;;;;;;;4.33;1.70;;;17.50;94.70;;;;;;936434;150;27471;-75
2022/06/09 01:37:12;;;;;;;2.10;1.70;;;17.50;94.80;;;;;;936489;150;27364;-75
2022/06/09 01:39:47;;;;;;;2.63;2.10;;;17.50;94.90;;;;;;937179;150;27321;-75
2022/06/09 01:42:29;;;;;;;2.27;2.10;;;17.50;94.80;;;;;;936879;150;27469;-73
2022/06/09 01:44:55;;;;;;;1.70;1.60;;;17.40;94.80;;;;;;937818;150;27392;-75
2022/06/09 01:47:22;;;;;;;1.87;1.55;;;17.40;94.70;;;;;;936885;150;27426;-74
2022/06/09 01:49:49;;;;;;;1.70;1.60;;;17.40;94.80;;;;;;936248;150;27300;-75
2022/06/09 01:52:15;;;;;;;2.00;1.90;;;17.40;94.80;;;;;;936134;152;27407;-75
2022/06/09 01:54:42;;;;;;;3.00;2.10;;;17.30;94.70;;;;;;937265;150;27919;-75
2022/06/09 01:57:08;;;;;;;2.00;1.90;;;17.30;94.70;;;;;;936696;151;27478;-75
2022/06/09 01:59:55;;;;;;;2.70;2.08;;;17.20;94.80;;;;;;936845;151;27486;-76
2022/06/09 02:02:21;;;;;;;2.17;1.80;;;17.20;95.00;;;;;;928834;151;27446;-77
2022/06/09 02:04:57;;;;;;;1.90;1.80;;;17.20;95.10;;;;;;948614;147;27459;-76
2022/06/09 02:07:24;;;;;;;2.23;2.03;;;17.10;95.20;;;;;;955726;147;27377;-78
2022/06/09 02:09:50;;;;;;;3.00;2.00;;;17.10;95.20;;;;;;943911;150;27342;-77
2022/06/09 02:12:17;;;;;;;2.60;1.93;;;17.00;95.30;;;;;;944627;148;27701;-77
2022/06/09 02:14:46;;;;;;;1.77;1.67;;;17.00;95.30;;;;;;944400;148;27335;-78
2022/06/09 02:17:13;;;;;;;2.80;2.03;;;16.90;95.30;;;;;;959362;149;27354;-78
2022/06/09 02:19:39;;;;;;;1.93;1.77;;;16.90;95.30;;;;;;959936;149;27325;-77
2022/06/09 02:22:06;;;;;;;1.77;1.63;;;16.80;95.40;;;;;;959879;146;27263;-78
2022/06/09 02:24:33;;;;;;;2.23;1.90;;;16.80;95.50;;;;;;959724;146;27314;-77
2022/06/09 02:26:59;;;;;;;1.93;1.83;;;16.70;95.50;;;;;;960223;149;27411;-78
2022/06/09 02:29:26;;;;;;;3.53;1.73;;;16.70;95.70;;;;;;959738;149;27439;-78
2022/06/09 02:31:52;;;;;;;2.40;2.20;;;16.60;95.80;;;;;;960079;146;27736;-77
2022/06/09 02:34:19;;;;;;;2.30;1.67;;;16.60;96.00;;;;;;959442;147;28510;-77
2022/06/09 02:36:46;;;;;;;2.03;1.83;;;16.50;96.20;;;;;;958889;149;27302;-77
2022/06/09 02:39:12;;;;;;;2.80;2.00;;;16.50;96.30;;;;;;959939;149;27765;-77
2022/06/09 02:41:39;;;;;;;2.00;1.90;;;16.50;96.60;;;;;;960576;146;27326;-78
2022/06/09 02:44:05;;;;;;;4.47;2.07;;;16.50;96.80;;;;;;959676;146;27419;-77
2022/06/09 02:46:32;;;;;;;2.23;1.70;;;16.50;96.80;;;;;;959079;149;27370;-77
2022/06/09 02:48:59;;;;;;;2.00;1.80;;;16.50;96.90;;;;;;960163;146;27318;-78
2022/06/09 02:51:34;;;;;;;1.60;1.50;;;16.40;96.90;;;;;;960551;146;27314;-77
2022/06/09 02:54:01;;;;;;;1.70;1.60;;;16.40;96.80;;;;;;959682;149;27314;-78
2022/06/09 02:56:27;;;;;;;1.90;1.60;;;16.40;96.80;;;;;;959727;149;27820;-77
2022/06/09 02:58:56;;;;;;;3.13;1.40;;;16.40;96.80;;;;;;960053;149;27330;-77
2022/06/09 03:01:21;;;;;;;1.67;1.57;;;16.30;96.70;;;;;;959343;146;28044;-77
2022/06/09 03:03:47;;;;;;;2.50;1.50;;;16.30;96.70;;;;;;959392;149;27404;-77
2022/06/09 03:06:14;;;;;;;2.80;1.53;;;16.30;96.70;;;;;;960996;146;27301;-77
2022/06/09 03:08:40;;;;;;;2.40;1.57;;;16.20;96.70;;;;;;959804;146;27450;-77
2022/06/09 03:11:10;;;;;;;2.40;1.27;;;16.20;96.70;;;;;;959214;146;27419;-77
2022/06/09 03:13:34;;;;;;;2.30;1.60;;;16.10;96.70;;;;;;959119;146;28268;-77
2022/06/09 03:16:00;;;;;;;3.77;1.50;;;16.10;96.70;;;;;;960312;147;27315;-77
2022/06/09 03:18:27;;;;;;;1.63;1.50;;;16.00;96.70;;;;;;959690;147;27818;-77
2022/06/09 03:20:53;;;;;;;2.40;1.50;;;16.00;96.90;;;;;;959743;146;27361;-78
2022/06/09 03:23:20;;;;;;;2.80;1.60;;;16.00;96.90;;;;;;960248;146;27419;-77
2022/06/09 03:25:48;;;;;;;3.20;1.43;;;15.90;96.90;;;;;;960266;146;27358;-77
2022/06/09 03:28:13;;;;;;;3.10;1.73;;;15.90;97.00;;;;;;959258;149;27414;-77
2022/06/09 03:30:40;;;;;;;2.00;1.37;;;15.80;97.00;;;;;;959881;149;27247;-77
2022/06/09 03:33:06;;;;;;;3.00;1.63;;;15.80;97.10;;;;;;959857;146;27324;-77
2022/06/09 03:35:33;;;;;;;4.33;1.87;;;15.70;97.20;;;;;;958827;149;27415;-77
2022/06/09 03:37:59;;;;;;;2.40;1.50;;;15.70;97.50;;;;;;959825;149;27350;-77
2022/06/09 03:40:28;;;;;;;2.10;1.40;;;15.70;97.70;;;;;;960132;147;27334;-77
2022/06/09 03:42:53;;;;;;;2.73;1.67;;;15.70;97.80;;;;;;959792;146;27427;-77
2022/06/09 03:45:21;;;;;;;2.53;1.60;;;15.70;97.90;;;;;;959403;146;27984;-77
2022/06/09 03:47:46;;;;;;;4.20;1.60;;;15.60;98.00;;;;;;960059;146;27408;-77
2022/06/09 03:50:15;;;;;;;1.47;1.37;;;15.60;98.20;;;;;;960185;147;27318;-77
2022/06/09 03:52:42;;;;;;;2.67;1.47;;;15.70;98.40;;;;;;959281;146;27395;-77
2022/06/09 03:55:08;;;;;;;1.63;1.50;;;15.70;98.50;;;;;;959391;146;27335;-77
2022/06/09 03:57:35;;;;;;;1.43;1.37;;;15.70;98.70;;;;;;959891;147;27399;-78
2022/06/09 04:00:01;;;;;;;2.37;1.60;;;15.70;98.70;;;;;;959903;146;27567;-77
2022/06/09 04:02:28;;;;;;;2.57;1.20;;;15.70;98.70;;;;;;959813;146;27380;-77
2022/06/09 04:04:55;;;;;;;3.70;1.50;;;15.70;98.60;;;;;;960176;146;27214;-77
2022/06/09 04:07:21;;;;;;;1.73;1.30;;;15.80;98.50;;;;;;959423;146;27911;-77
2022/06/09 04:09:48;;;;;;;1.70;1.53;;;15.80;98.50;;;;;;959501;149;27419;-76
2022/06/09 04:12:14;;;;;;;2.10;1.37;;;15.80;98.60;;;;;;959972;146;27306;-77
2022/06/09 04:14:42;;;;;;;1.60;1.50;;;15.80;98.70;;;;;;959790;147;27350;-77
2022/06/09 04:17:07;;;;;;;3.33;1.47;;;15.80;98.90;;;;;;960060;147;27334;-78
2022/06/09 04:19:34;;;;;;;1.23;1.13;;;15.90;99.10;;;;;;959163;146;27383;-77
2022/06/09 04:22:01;;;;;;;2.13;1.40;;;15.90;99.30;;;;;;959603;146;27929;-77
2022/06/09 04:24:27;;;;;;;4.40;1.63;;;16.00;99.60;;;;;;959942;147;27309;-78
2022/06/09 04:26:54;;;;;;;2.30;1.60;;;16.10;99.80;;;;;;959200;149;27332;-78
2022/06/09 04:29:20;;;;;;;1.70;1.30;;;16.20;99.80;;;;;;960054;149;27342;-77
2022/06/09 04:31:47;;;;;;;3.30;1.30;;;16.30;99.70;;;;;;961111;146;27318;-78
2022/06/09 04:34:14;;;;;;;2.40;1.50;;;16.40;99.60;;;;;;959918;147;27247;-78
2022/06/09 04:36:41;;;;;;;3.47;1.70;;;16.50;99.60;;;;;;960316;147;27283;-78
2022/06/09 04:39:07;;;;;;;2.27;1.50;;;16.60;99.50;;;;;;959542;149;27396;-78
2022/06/09 04:41:33;;;;;;;2.77;1.23;;;16.70;99.40;;;;;;960897;146;27334;-77
2022/06/09 04:44:00;;;;;;;1.90;1.30;;;16.90;99.20;;;;;;959706;149;27434;-77
2022/06/09 04:46:27;;;;;;;1.35;1.10;;;17.00;99.10;;;;;;959694;147;27255;-77
2022/06/09 04:48:53;;;;;;;1.72;1.25;;;17.10;99.20;;;;;;959682;147;27427;-77
2022/06/09 04:51:20;;;;;;;1.85;1.25;;;17.20;99.50;;;;;;959562;146;27325;-78
2022/06/09 04:53:46;;;;;;;2.83;1.20;;;17.40;99.70;;;;;;959937;149;27330;-78
2022/06/09 04:56:14;;;;;;;1.75;1.07;;;17.60;99.40;;;;;;959827;149;27780;-77
2022/06/09 04:58:39;;;;;;;3.25;1.15;;;17.80;99.50;;;;;;959006;149;27318;-78
2022/06/09 05:01:06;;;;;;;4.40;1.40;;;18.10;99.90;;;;;;959906;146;27305;-78
2022/06/09 05:03:33;;;;;;;3.12;1.32;;;18.40;99.90;;;;;;959236;149;27370;-78
2022/06/09 05:05:59;;;;;;;1.20;1.10;;;18.80;99.90;;;;;;960386;146;27431;-77
2022/06/09 05:08:26;;;;;;;2.05;1.20;;;19.30;99.90;;;;;;959264;146;27462;-78
2022/06/09 05:10:52;;;;;;;1.05;0.95;;;19.90;99.90;;;;;;959135;146;27386;-78
2022/06/09 05:13:19;;;;;;;2.95;1.50;;;20.60;99.90;;;;;;959488;146;27290;-78
2022/06/09 05:15:49;;;;;;;2.87;1.67;;;21.30;99.90;;;;;;959133;149;27298;-78
2022/06/09 05:18:15;;;;;;;2.67;1.40;;;21.90;98.30;;;;;;959821;149;27419;-78
2022/06/09 05:20:42;;;;;;;3.15;1.20;;;22.50;96.70;;;;;;960105;146;27418;-78
2022/06/09 05:23:08;;;;;;;1.45;0.93;;;23.00;94.50;;;;;;960382;146;27323;-78
2022/06/09 05:25:35;;;;;;;3.22;1.27;;;23.60;92.70;;;;;;959482;147;27249;-78
2022/06/09 05:28:02;;;;;;;3.17;1.07;;;23.90;90.90;;;;;;959545;147;27299;-75
2022/06/09 05:30:28;;;;;;;1.42;1.00;;;24.30;89.60;;;;;;960010;149;27905;-75
2022/06/09 05:32:55;;;;;;;1.65;1.17;;;24.70;85.60;;;;;;960339;146;27926;-76
2022/06/09 05:35:21;;;;;;;1.55;0.95;;;24.90;81.50;;;;;;959118;147;27436;-76
2022/06/09 05:46:02;;;;;;;3.10;1.30;;;25.10;74.60;;;;;;959285;147;27391;-76
2022/06/09 05:48:29;;;;;;;1.80;1.10;;;25.20;76.00;;;;;;959700;147;27339;-75
2022/06/09 05:50:56;;;;;;;3.05;1.27;;;25.30;75.30;;;;;;959804;149;27452;-75
2022/06/09 05:53:22;;;;;;;1.98;0.80;;;25.40;74.30;;;;;;959188;146;27337;-75
2022/06/09 05:55:49;;;;;;;2.05;1.35;;;25.60;74.00;;;;;;959388;146;27314;-76
2022/06/09 05:58:15;;;;;;;2.45;1.00;;;25.80;73.00;;;;;;959725;149;27295;-75
2022/06/09 06:00:42;;;;;;;1.45;1.05;;;25.90;71.80;;;;;;958809;149;27311;-76
2022/06/09 06:03:09;;;;;;;1.60;1.10;;;26.00;70.70;;;;;;960580;146;27454;-76
2022/06/09 06:08:20;;;;;;;3.75;1.30;;;26.30;70.00;;;;;;959888;146;27419;-76
2022/06/09 06:10:46;;;;;;;2.85;1.30;;;26.50;70.40;;;;;;959730;146;27384;-76
2022/06/09 06:13:13;;;;;;;1.85;1.00;;;26.70;70.00;;;;;;960486;146;27302;-76
2022/06/09 06:15:40;;;;;;;2.45;0.93;;;27.00;68.80;;;;;;960039;147;27320;-76
2022/06/09 06:18:06;;;;;;;1.75;1.00;;;27.20;67.20;;;;;;959930;147;27333;-76
2022/06/09 06:20:33;;;;;;;1.75;0.80;;;27.30;66.30;;;;;;959859;146;27350;-76
2022/06/09 06:22:59;;;;;;;1.65;0.75;;;27.50;66.40;;;;;;959977;146;27322;-76
2022/06/09 06:25:26;;;;;;;2.65;1.37;;;27.70;66.00;;;;;;959704;147;27263;-76
2022/06/09 06:27:53;;;;;;;2.15;1.25;;;28.00;66.30;;;;;;959600;149;27464;-76
2022/06/09 06:30:19;;;;;;;1.45;0.78;;;28.40;66.40;;;;;;959790;147;27376;-76
2022/06/09 06:32:46;;;;;;;1.87;1.02;;;28.90;66.60;;;;;;960147;146;27347;-76
2022/06/09 06:35:12;;;;;;;1.50;0.90;;;29.30;65.60;;;;;;959420;146;27298;-76
2022/06/09 06:37:39;;;;;;;2.70;1.07;;;29.90;64.80;;;;;;959291;149;27315;-76
2022/06/09 06:40:06;;;;;;;2.40;1.40;;;30.40;63.20;;;;;;959340;146;27310;-76
2022/06/09 06:42:32;;;;;;;1.15;0.80;;;30.90;61.70;;;;;;960688;146;27350;-77
2022/06/09 06:44:59;;;;;;;2.12;0.90;;;31.40;61.10;;;;;;959760;149;27508;-77
2022/06/09 06:47:25;;;;;;;1.32;1.12;;;32.00;60.80;;;;;;960465;147;27327;-76
2022/06/09 06:49:52;;;;;;;3.85;1.10;;;32.50;59.30;;;;;;959142;147;27339;-77
2022/06/09 06:52:18;;;;;;;1.55;0.80;;;33.10;58.40;;;;;;958355;146;26308;-77
2022/06/09 06:54:45;;;;;;;1.40;0.88;;;33.70;58.00;;;;;;959297;146;26227;-77
2022/06/09 06:57:12;;;;;;;2.10;0.90;;;34.30;57.30;;;;;;959547;146;27331;-77
2022/06/09 06:59:38;;;;;;;1.17;0.80;;;34.90;56.20;;;;;;959395;146;26624;-77
2022/06/09 07:02:05;;;;;;;2.08;1.00;;;35.60;54.90;;;;;;959475;146;26232;-77
2022/06/09 07:04:31;;;;;;;1.22;1.07;;;36.20;54.10;;;;;;955532;147;26278;-77
2022/06/09 07:06:59;;;;;;;1.42;0.82;;;36.70;52.90;;;;;;950853;148;26273;-77
2022/06/09 07:09:25;;;;;;;1.75;0.80;;;37.20;51.80;;;;;;949981;148;26287;-77
2022/06/09 07:11:51;;;;;;;2.45;1.27;;;37.50;49.90;;;;;;950566;148;26285;-77
2022/06/09 07:14:18;;;;;;;2.08;0.95;;;37.60;48.30;;;;;;950313;148;26259;-77
2022/06/09 07:16:44;;;;;;;2.72;1.05;;;37.70;47.80;;;;;;950034;149;26152;-77
2022/06/09 07:19:11;;;;;;;3.90;1.20;;;37.80;48.00;;;;;;949582;149;26304;-77
2022/06/09 07:21:38;;;;;;;4.28;0.80;;;38.00;47.90;;;;;;950449;148;26215;-77
2022/06/09 07:24:04;;;;;;;2.80;1.12;;;38.30;47.00;;;;;;950322;149;26338;-77
2022/06/09 07:26:31;;;;;;;1.98;1.00;;;38.30;45.50;;;;;;949877;148;26906;-77
2022/06/09 07:28:57;;;;;;;1.90;0.85;;;38.10;44.40;;;;;;949929;149;26269;-77
2022/06/09 07:31:24;;;;;;;1.85;1.00;;;37.70;43.40;;;;;;950724;148;27296;-77
2022/06/09 07:33:50;;;;;;;2.62;1.22;;;37.20;42.70;;;;;;949942;148;27251;-77
2022/06/09 07:36:17;;;;;;;2.02;1.10;;;36.50;42.50;;;;;;949619;151;27313;-76
2022/06/09 07:38:44;;;;;;;0.82;0.75;;;35.70;42.60;;;;;;950494;148;27362;-76
2022/06/09 07:41:10;;;;;;;2.55;1.20;;;34.90;42.70;;;;;;949790;148;27311;-76
2022/06/09 07:43:37;;;;;;;2.17;0.98;;;34.10;43.10;;;;;;950421;148;27343;-76
2022/06/09 07:46:03;;;;;;;1.22;0.90;;;33.30;43.60;;;;;;952449;149;27427;-76
2022/06/09 07:48:30;;;;;;;1.95;1.17;;;32.50;44.00;;;;;;950439;148;27666;-77
2022/06/09 07:50:57;;;;;;;3.20;1.20;;;31.90;44.80;;;;;;950547;148;27369;-76
2022/06/09 07:53:23;;;;;;;1.65;1.20;;;31.20;45.30;;;;;;930748;152;28473;-76
2022/06/09 07:55:50;;;;;;;2.12;1.15;;;30.70;45.90;;;;;;950350;148;27308;-76
2022/06/09 07:58:17;;;;;;;2.52;1.20;;;30.20;46.30;;;;;;948398;148;27352;-76
2022/06/09 08:00:43;;;;;;;3.92;1.15;;;29.80;47.00;;;;;;947027;149;27340;-76
2022/06/09 08:03:10;;;;;;;2.00;0.85;;;29.40;47.40;;;;;;951026;148;27347;-77
2022/06/09 08:05:36;;;;;;;1.75;1.15;;;29.00;48.10;;;;;;946058;148;28356;-76
2022/06/09 08:08:03;;;;;;;5.85;2.02;;;28.80;48.70;;;;;;949151;148;27283;-76
2022/06/09 08:10:29;;;;;;;4.70;1.67;;;28.60;49.10;;;;;;944343;148;27463;-76
2022/06/09 08:12:56;;;;;;;1.90;1.10;;;28.50;49.60;;;;;;960330;146;27288;-76
2022/06/09 08:15:24;;;;;;;1.72;1.30;;;28.40;49.80;;;;;;958508;146;27718;-76
2022/06/09 08:17:49;;;;;;;2.55;1.25;;;28.50;50.40;;;;;;958945;149;27322;-76
2022/06/09 08:20:16;;;;;;;3.52;2.47;;;28.60;51.00;;;;;;959490;147;27307;-76
2022/06/09 08:22:43;;;;;;;2.35;1.20;;;29.00;51.10;;;;;;959750;146;27370;-76
2022/06/09 08:25:09;;;;;;;2.42;1.12;;;29.30;51.00;;;;;;959647;149;27307;-77
2022/06/09 08:27:35;;;;;;;2.65;1.12;;;29.60;51.40;;;;;;959297;147;27323;-77
2022/06/09 08:30:02;;;;;;;1.57;0.80;;;29.80;50.60;;;;;;959359;147;27327;-76
2022/06/09 08:32:29;;;;;;;1.50;1.00;;;29.90;49.70;;;;;;959287;146;27304;-76
2022/06/09 08:34:56;;;;;;;2.05;1.57;;;29.80;49.10;;;;;;959179;146;27311;-77
2022/06/09 08:37:22;;;;;;;3.02;1.05;;;29.70;48.50;;;;;;958729;147;27328;-77
2022/06/09 08:39:48;;;;;;;4.20;1.30;;;29.30;48.60;;;;;;959864;146;27236;-77
2022/06/09 08:42:21;;;;;;;4.37;1.47;;;28.80;48.80;;;;;;960412;146;27359;-77
2022/06/09 08:44:50;;;;;;;1.87;1.30;;;28.20;49.00;;;;;;958581;149;27638;-77
2022/06/09 08:47:29;;;;;;;1.25;0.90;;;27.60;49.60;;;;;;958790;147;27322;-77
2022/06/09 08:50:01;;;;;;;3.62;1.02;;;27.00;50.20;;;;;;958849;149;27322;-76
2022/06/09 08:52:31;;;;;;;1.57;0.95;;;26.50;51.10;;;;;;959103;146;27431;-77
2022/06/09 08:54:57;;;;;;;3.65;1.60;;;26.10;52.30;;;;;;959481;147;27431;-77
2022/06/09 08:57:25;;;;;;;2.87;1.22;;;25.90;53.50;;;;;;958602;149;27357;-77
2022/06/09 08:59:50;;;;;;;1.95;1.10;;;25.80;55.40;;;;;;959109;149;27287;-78
2022/06/09 09:02:32;;;;;;;1.62;1.10;;;26.10;57.10;;;;;;959562;146;27400;-78
2022/06/09 09:05:04;;;;;;;2.22;0.90;;;26.60;57.90;;;;;;960188;146;27484;-77
2022/06/09 09:07:31;;;;;;;4.00;1.07;;;27.20;57.30;;;;;;948012;146;27339;-78
2022/06/09 09:09:58;;;;;;;2.12;1.30;;;27.80;55.80;;;;;;960605;146;27327;-78
2022/06/09 09:12:39;;;;;;;1.52;1.07;;;28.30;54.50;;;;;;957241;146;27290;-78
2022/06/09 09:15:21;;;;;;;2.55;1.20;;;28.50;53.20;;;;;;959245;146;27264;-78
2022/06/09 09:17:53;;;;;;;3.00;1.20;;;28.50;52.20;;;;;;960431;146;27353;-78
2022/06/09 09:20:26;;;;;;;2.70;1.40;;;28.20;51.30;;;;;;957545;147;27359;-77
2022/06/09 09:23:16;;;;;;;1.35;1.00;;;27.80;51.10;;;;;;958511;146;27322;-77
2022/06/09 09:25:51;;;;;;;1.37;1.00;;;27.40;51.30;;;;;;958982;149;27438;-77
2022/06/09 09:28:18;;;;;;;1.80;0.90;;;26.90;51.30;;;;;;959688;149;27413;-78
2022/06/09 09:30:45;;;;;;;2.77;1.10;;;26.40;52.10;;;;;;958199;149;27841;-78
2022/06/09 09:33:14;;;;;;;3.25;1.47;;;26.00;52.90;;;;;;954918;149;27304;-78
2022/06/09 09:35:41;;;;;;;2.50;1.32;;;25.60;53.40;;;;;;959076;147;27835;-77
2022/06/09 09:38:07;;;;;;;1.80;1.10;;;25.30;54.60;;;;;;960113;146;27972;-78
2022/06/09 09:40:34;;;;;;;1.62;0.98;;;25.20;55.20;;;;;;959373;146;27393;-78
2022/06/09 09:43:03;;;;;;;3.17;1.10;;;25.00;55.60;;;;;;959311;146;27326;-77
2022/06/09 09:45:33;;;;;;;2.75;1.07;;;25.00;56.10;;;;;;958520;147;27285;-78
2022/06/09 09:47:59;;;;;;;1.47;0.90;;;25.00;56.40;;;;;;959586;146;27336;-78
2022/06/09 09:50:38;;;;;;;1.17;1.07;;;25.20;57.00;;;;;;958717;147;27319;-77
2022/06/09 09:53:20;;;;;;;1.52;0.88;;;25.40;58.10;;;;;;958217;146;27360;-77
2022/06/09 09:56:05;;;;;;;4.50;2.00;;;25.80;58.00;;;;;;959303;149;27404;-78
2022/06/09 09:58:39;;;;;;;2.67;1.25;;;26.20;57.50;;;;;;957260;147;27964;-78
2022/06/09 10:01:25;;;;;;;1.47;0.70;;;26.70;56.60;;;;;;958137;146;27336;-78
2022/06/09 10:09:29;;;;;;;2.30;1.37;;;27.90;56.30;;;;;;959826;146;27877;-77
2022/06/09 10:11:59;;;;;;;2.27;1.22;;;28.40;55.50;;;;;;960655;146;28549;-77
2022/06/09 10:14:28;;;;;;;1.77;1.07;;;28.80;54.50;;;;;;959063;146;27435;-77
2022/06/09 10:16:54;;;;;;;1.10;1.07;;;29.10;53.30;;;;;;960340;146;27398;-77
2022/06/09 10:19:21;;;;;;;4.75;1.72;;;29.30;52.10;;;;;;960198;146;27863;-77
2022/06/09 10:21:50;;;;;;;2.45;0.98;;;29.30;51.40;;;;;;959863;146;27709;-77
2022/06/09 10:24:17;;;;;;;1.82;0.82;;;29.10;50.60;;;;;;958555;149;27343;-77
2022/06/09 10:26:44;;;;;;;1.52;0.95;;;28.90;50.20;;;;;;959552;149;27276;-77
2022/06/09 10:29:28;;;;;;;1.55;1.00;;;28.50;50.10;;;;;;960164;147;27311;-77
2022/06/09 10:32:13;;;;;;;2.20;0.98;;;28.20;50.30;;;;;;958581;146;27337;-77
2022/06/09 10:34:55;;;;;;;2.30;1.40;;;27.70;50.40;;;;;;959869;146;27354;-77
2022/06/09 10:37:42;;;;;;;2.42;1.20;;;27.20;50.80;;;;;;959450;149;27357;-77
2022/06/09 10:40:15;;;;;;;2.75;1.20;;;26.70;51.20;;;;;;959609;146;27318;-77
2022/06/09 10:42:52;;;;;;;2.02;1.10;;;26.00;51.30;;;;;;960794;146;27350;-77
2022/06/09 10:45:33;;;;;;;3.95;2.15;;;25.40;52.00;;;;;;958676;146;27414;-77
2022/06/09 10:57:02;;;;;;;2.02;1.05;;;23.10;56.00;;;;;;925100;154;27402;-77
2022/06/09 10:59:34;;;;;;;1.95;0.85;;;22.80;57.00;;;;;;927925;151;27352;-77
2022/06/09 11:02:01;;;;;;;0.82;0.78;;;22.60;57.70;;;;;;944294;149;27269;-77
2022/06/09 11:04:27;;;;;;;1.72;1.10;;;22.40;58.20;;;;;;943723;149;27320;-77
2022/06/09 11:06:57;;;;;;;2.50;1.10;;;22.30;58.50;;;;;;945435;149;27398;-77
2022/06/09 11:09:47;;;;;;;2.05;1.02;;;22.20;59.00;;;;;;947784;148;27495;-76
2022/06/09 11:12:17;;;;;;;1.67;1.07;;;22.10;59.40;;;;;;949451;149;27306;-77
2022/06/09 11:14:59;;;;;;;0.93;0.90;;;22.10;59.80;;;;;;948701;148;27403;-76
2022/06/09 11:17:43;;;;;;;1.17;0.90;;;22.10;61.00;;;;;;945559;148;27396;-77
2022/06/09 11:20:19;;;;;;;2.47;1.12;;;22.10;60.40;;;;;;947993;148;27332;-77
2022/06/09 11:22:57;;;;;;;0.90;0.72;;;22.20;60.30;;;;;;948321;148;27345;-77
2022/06/09 11:25:30;;;;;;;2.90;0.72;;;22.20;60.60;;;;;;947860;149;27702;-76
2022/06/09 11:27:56;;;;;;;1.10;0.72;;;22.30;60.70;;;;;;947787;148;27430;-76
2022/06/09 11:30:35;;;;;;;1.07;0.80;;;22.30;60.90;;;;;;948187;150;27387;-77
2022/06/09 11:33:20;;;;;;;1.47;1.15;;;22.40;61.10;;;;;;947458;148;27354;-77
2022/06/09 11:35:56;;;;;;;1.82;0.98;;;22.40;61.20;;;;;;947459;148;27395;-77
2022/06/09 11:38:41;;;;;;;2.17;1.10;;;22.50;61.30;;;;;;947268;149;27508;-77
2022/06/09 11:41:31;;;;;;;0.95;0.88;;;22.50;60.90;;;;;;926052;151;27375;-77
2022/06/09 11:44:22;;;;;;;1.12;0.90;;;22.50;60.40;;;;;;948130;148;27355;-77
2022/06/09 11:46:49;;;;;;;13.22;1.77;;;22.50;60.50;;;;;;947228;148;27830;-77
2022/06/09 11:49:24;;;;;;;2.58;1.22;;;22.50;60.70;;;;;;949963;150;27305;-77
2022/06/09 11:51:51;;;;;;;1.50;1.35;;;22.50;61.40;;;;;;950008;148;27345;-77
2022/06/09 11:54:38;;;;;;;1.32;1.17;;;22.60;61.50;;;;;;948325;148;27355;-77
2022/06/09 11:57:17;;;;;;;1.30;1.10;;;22.80;62.50;;;;;;948908;149;27510;-77
2022/06/09 12:00:22;;;;;;;2.47;1.05;;;23.00;62.10;;;;;;950090;151;27335;-77
2022/06/09 12:03:04;;;;;;;1.47;1.10;;;23.20;62.20;;;;;;947887;151;27351;-77
2022/06/09 12:05:37;;;;;;;1.20;1.10;;;23.50;62.30;;;;;;946736;150;27407;-77
2022/06/09 12:08:25;;;;;;;1.07;0.98;;;23.80;61.70;;;;;;933549;149;27388;-77
2022/06/09 12:10:57;;;;;;;3.30;1.60;;;24.10;60.90;;;;;;915806;154;27530;-77
2022/06/09 12:13:46;;;;;;;1.10;0.80;;;24.30;59.80;;;;;;946113;151;27348;-77
2022/06/09 12:16:25;;;;;;;2.55;1.15;;;24.50;59.50;;;;;;946347;151;27462;-77
2022/06/09 12:19:06;;;;;;;1.27;1.10;;;24.70;59.10;;;;;;932028;152;27447;-76
2022/06/09 12:21:33;;;;;;;1.25;0.65;;;24.80;58.90;;;;;;922211;154;29020;-77
2022/06/09 12:24:02;;;;;;;2.75;1.30;;;24.90;58.50;;;;;;931886;153;27437;-77
2022/06/09 12:26:42;;;;;;;0.98;0.98;;;25.00;58.00;;;;;;935446;153;27520;-77
2022/06/09 12:29:19;;;;;;;2.92;0.98;;;25.20;57.20;;;;;;931607;151;27388;-76
2022/06/09 12:32:10;;;;;;;1.47;0.90;;;25.20;57.60;;;;;;932625;151;27285;-76
2022/06/09 12:34:43;;;;;;;1.98;1.20;;;25.20;57.40;;;;;;932108;153;27207;-77
2022/06/09 12:37:30;;;;;;;10.38;1.92;;;25.30;57.30;;;;;;932525;152;27255;-77
2022/06/09 12:40:15;;;;;;;2.72;1.20;;;25.30;57.30;;;;;;931658;154;27285;-77
2022/06/09 12:42:47;;;;;;;4.30;1.67;;;25.40;57.10;;;;;;931578;152;27291;-77
2022/06/09 12:45:22;;;;;;;1.50;1.22;;;25.30;56.60;;;;;;932187;151;27262;-77
2022/06/09 12:47:52;;;;;;;2.05;0.80;;;25.20;56.30;;;;;;932106;154;27349;-77
2022/06/09 12:50:21;;;;;;;2.70;1.05;;;25.20;56.00;;;;;;932010;151;27654;-77
2022/06/09 12:52:47;;;;;;;3.55;1.35;;;25.00;55.90;;;;;;910141;156;27773;-77
2022/06/09 12:55:20;;;;;;;2.22;1.27;;;24.90;55.60;;;;;;946140;151;27405;-77
2022/06/09 12:57:47;;;;;;;1.30;0.90;;;24.80;55.80;;;;;;945332;151;27427;-77
2022/06/09 13:00:21;;;;;;;1.62;1.00;;;24.70;56.10;;;;;;930455;151;27322;-77
2022/06/09 13:02:45;;;;;;;1.95;1.70;;;24.60;56.30;;;;;;931919;151;27318;-77
2022/06/09 13:05:21;;;;;;;2.08;1.47;;;24.50;56.50;;;;;;931509;154;27266;-77
2022/06/09 13:07:56;;;;;;;0.95;0.88;;;24.50;56.30;;;;;;919385;151;27411;-77
2022/06/09 13:10:23;;;;;;;2.37;0.85;;;24.50;56.20;;;;;;927091;154;27362;-77
2022/06/09 13:12:52;;;;;;;1.12;1.00;;;24.50;56.50;;;;;;959363;149;27335;-77
2022/06/09 13:15:33;;;;;;;1.00;0.72;;;24.50;56.60;;;;;;959793;149;27319;-77
2022/06/09 13:17:57;;;;;;;0.85;0.80;;;24.60;56.60;;;;;;959914;146;27893;-78
2022/06/09 13:20:23;;;;;;;1.17;0.70;;;24.80;56.70;;;;;;959275;149;27304;-77
2022/06/09 13:22:50;;;;;;;1.15;0.90;;;24.90;56.70;;;;;;959637;147;27354;-77
2022/06/09 13:25:23;;;;;;;2.00;0.88;;;25.20;56.60;;;;;;958974;149;27329;-78
2022/06/09 13:27:49;;;;;;;1.52;0.82;;;25.30;56.10;;;;;;958430;149;27432;-77